Time;durP1;ratioP1;P1;durP2;ratioP2;P2;SDS_P1;SDS_P2;PMS_P1;PMS_P2;Temp;Humidity;BMP_temperature;BMP_pressure;BME280_temperature;BME280_humidity;BME280_pressure;Samples;Min_cycle;Max_cycle;Signal;HPM_P1;HPM_P2
2021/04/07 00:00:29;;;;;;;8.07;3.10;;;77.70;2150.40;;;;;;5095090;28;20443;-70
2021/04/07 00:02:55;;;;;;;6.47;2.93;;;77.70;2176.00;;;;;;5095065;28;20357;-69
2021/04/07 00:05:27;;;;;;;6.00;3.00;;;77.70;2176.00;;;;;;5095285;28;20367;-68
2021/04/07 00:07:54;;;;;;;5.30;3.33;;;77.70;2176.00;;;;;;5094842;28;20488;-69
2021/04/07 00:10:23;;;;;;;6.17;2.93;;;77.70;2176.00;;;;;;5095078;28;20387;-69
2021/04/07 00:12:50;;;;;;;5.20;3.20;;;77.70;2176.00;;;;;;5094647;28;20476;-67
2021/04/07 00:15:20;;;;;;;9.90;3.50;;;77.70;2176.00;;;;;;5094665;28;20464;-68
2021/04/07 00:17:50;;;;;;;6.57;3.47;;;102.40;2150.40;;;;;;5094719;28;20464;-70
2021/04/07 00:20:22;;;;;;;5.17;2.93;;;102.40;2150.40;;;;;;5094607;28;20368;-70
2021/04/07 00:22:49;;;;;;;8.88;3.30;;;102.40;2150.40;;;;;;5094502;28;20443;-69
2021/04/07 00:25:16;;;;;;;6.17;3.93;;;102.40;2150.40;;;;;;5094476;28;20575;-69
2021/04/07 00:27:44;;;;;;;7.97;4.20;;;102.50;2150.40;;;;;;5094414;28;20511;-69
2021/04/07 00:30:11;;;;;;;7.40;3.20;;;102.50;2124.80;;;;;;5094605;28;20525;-70
2021/04/07 00:32:38;;;;;;;7.63;3.37;;;102.50;2124.80;;;;;;5094559;28;20364;-69
2021/04/07 00:35:05;;;;;;;7.57;3.30;;;102.50;2124.80;;;;;;5094785;28;20360;-69
2021/04/07 00:37:31;;;;;;;4.80;3.23;;;102.50;2124.80;;;;;;5094944;28;20387;-69
2021/04/07 00:39:57;;;;;;;5.83;3.20;;;102.50;2150.40;;;;;;5094375;28;20350;-67
2021/04/07 00:42:23;;;;;;;8.00;3.93;;;102.50;2124.80;;;;;;5094673;28;20012;-69
2021/04/07 00:44:50;;;;;;;6.40;3.73;;;102.50;2124.80;;;;;;5094226;28;20460;-67
2021/04/07 00:47:19;;;;;;;6.03;3.17;;;102.50;2124.80;;;;;;5094237;28;20468;-70
2021/04/07 00:49:46;;;;;;;9.13;3.27;;;102.50;2124.80;;;;;;5094256;28;20453;-69
2021/04/07 00:52:12;;;;;;;5.73;3.30;;;102.40;2124.80;;;;;;5094096;28;20024;-69
2021/04/07 00:54:38;;;;;;;7.83;3.20;;;102.40;2124.80;;;;;;5094458;28;20368;-69
2021/04/07 00:57:05;;;;;;;7.73;3.77;;;102.50;2124.80;;;;;;5094450;28;20522;-68
2021/04/07 00:59:32;;;;;;;5.23;3.17;;;102.50;2124.80;;;;;;5094025;28;20360;-68
2021/04/07 01:01:58;;;;;;;7.53;3.00;;;102.50;2124.80;;;;;;5093988;28;20417;-69
2021/04/07 01:04:25;;;;;;;6.68;3.13;;;102.50;2099.20;;;;;;5093938;28;20556;-69
2021/04/07 01:06:52;;;;;;;6.10;3.17;;;102.50;2124.80;;;;;;5094163;28;20392;-69
2021/04/07 01:09:18;;;;;;;5.83;3.33;;;102.50;2099.20;;;;;;5093915;28;20012;-69
2021/04/07 01:11:44;;;;;;;7.53;3.87;;;102.50;2099.20;;;;;;5093772;28;20419;-69
2021/04/07 01:14:12;;;;;;;7.80;4.60;;;102.60;2099.20;;;;;;5093896;28;20456;-69
2021/04/07 01:16:38;;;;;;;3.90;2.70;;;102.50;2099.20;;;;;;5094064;28;20036;-70
2021/04/07 01:19:08;;;;;;;6.53;3.58;;;102.50;2099.20;;;;;;5075680;28;20364;-69
2021/04/07 01:21:35;;;;;;;8.20;3.63;;;102.60;2099.20;;;;;;5093717;28;20460;-69
2021/04/07 01:24:03;;;;;;;7.33;3.57;;;102.60;2073.60;;;;;;5093603;28;20399;-69
2021/04/07 01:26:29;;;;;;;6.35;3.67;;;102.60;2099.20;;;;;;5075482;28;20365;-69
2021/04/07 01:28:55;;;;;;;8.10;3.35;;;102.50;2073.60;;;;;;5093539;28;20488;-69
2021/04/07 01:31:21;;;;;;;6.13;3.50;;;102.50;2073.60;;;;;;5093554;28;20402;-68
2021/04/07 01:33:47;;;;;;;6.13;3.80;;;102.50;2073.60;;;;;;5093183;28;20031;-68
2021/04/07 01:36:13;;;;;;;8.40;4.13;;;102.50;2073.60;;;;;;5093507;28;20028;-69
2021/04/07 01:38:39;;;;;;;8.60;4.33;;;102.60;2048.00;;;;;;5093353;28;20423;-68
2021/04/07 01:41:05;;;;;;;8.33;4.37;;;102.60;2048.00;;;;;;5093754;28;20024;-69
2021/04/07 01:43:33;;;;;;;8.37;4.93;;;102.60;2048.00;;;;;;5093484;28;20356;-69
2021/04/07 01:46:01;;;;;;;8.63;4.93;;;102.60;2048.00;;;;;;5093546;28;20506;-68
2021/04/07 01:48:29;;;;;;;8.40;4.93;;;102.60;2048.00;;;;;;5075356;28;20407;-68
2021/04/07 01:50:57;;;;;;;6.67;4.50;;;102.50;2048.00;;;;;;5093436;28;20112;-68
2021/04/07 01:53:23;;;;;;;9.73;5.20;;;102.60;2048.00;;;;;;5093356;28;20338;-69
2021/04/07 01:55:49;;;;;;;9.53;6.13;;;102.50;2048.00;;;;;;5093361;28;20486;-69
2021/04/07 01:58:15;;;;;;;10.13;5.70;;;102.50;2048.00;;;;;;5093276;28;20063;-69
2021/04/07 02:00:41;;;;;;;9.93;6.00;;;102.60;2022.40;;;;;;5093295;28;20345;-69
2021/04/07 02:03:08;;;;;;;7.67;5.13;;;102.60;2022.40;;;;;;5093270;28;20407;-67
2021/04/07 02:05:34;;;;;;;9.37;5.67;;;102.60;2022.40;;;;;;5093124;28;20468;-69
2021/04/07 02:08:00;;;;;;;9.33;5.07;;;102.50;2022.40;;;;;;5093774;28;20436;-68
2021/04/07 02:10:27;;;;;;;7.73;5.47;;;102.50;2022.40;;;;;;5093175;28;20467;-70
2021/04/07 02:12:54;;;;;;;11.27;5.60;;;102.40;2048.00;;;;;;5093461;28;20020;-68
2021/04/07 02:15:21;;;;;;;9.77;5.43;;;102.40;2048.00;;;;;;5093196;28;20474;-70
2021/04/07 02:17:47;;;;;;;8.27;5.73;;;77.70;2048.00;;;;;;5093124;28;20399;-70
2021/04/07 02:20:14;;;;;;;8.67;5.73;;;77.70;2073.60;;;;;;5093061;28;20372;-67
2021/04/07 02:22:40;;;;;;;10.93;6.17;;;77.60;2073.60;;;;;;5093105;28;20431;-68
2021/04/07 02:25:08;;;;;;;9.60;5.47;;;77.50;2073.60;;;;;;5093103;28;20406;-69
2021/04/07 02:27:35;;;;;;;10.47;6.83;;;77.50;2073.60;;;;;;5092933;28;20372;-69
2021/04/07 02:30:06;;;;;;;13.20;7.10;;;77.40;2073.60;;;;;;5093016;28;20448;-68
2021/04/07 02:32:32;;;;;;;11.03;6.70;;;77.40;2099.20;;;;;;5093046;28;20494;-67
2021/04/07 02:34:58;;;;;;;13.00;7.87;;;77.40;2073.60;;;;;;5092906;28;20058;-68
2021/04/07 02:37:24;;;;;;;11.47;7.43;;;77.30;2073.60;;;;;;5092885;28;20456;-69
2021/04/07 02:39:50;;;;;;;15.33;7.90;;;77.30;2099.20;;;;;;5093275;28;20525;-69
2021/04/07 02:42:20;;;;;;;14.60;7.27;;;77.30;2073.60;;;;;;5093107;28;20062;-69
2021/04/07 02:44:47;;;;;;;12.37;8.20;;;77.30;2099.20;;;;;;5095025;28;20448;-69
2021/04/07 02:47:13;;;;;;;16.07;8.33;;;77.20;2099.20;;;;;;5096598;28;20394;-69
2021/04/07 02:49:39;;;;;;;13.20;7.57;;;77.10;2099.20;;;;;;5096709;28;20356;-69
2021/04/07 02:52:06;;;;;;;16.20;8.30;;;77.10;2099.20;;;;;;5096914;28;20456;-69
2021/04/07 02:54:33;;;;;;;13.40;8.00;;;77.00;2099.20;;;;;;5096564;28;20476;-68
2021/04/07 02:57:00;;;;;;;14.63;8.30;;;77.00;2124.80;;;;;;5096891;28;20487;-69
2021/04/07 02:59:26;;;;;;;15.10;7.97;;;76.90;2124.80;;;;;;5096493;28;20488;-69
2021/04/07 03:01:52;;;;;;;17.40;8.70;;;76.90;2124.80;;;;;;5096798;28;20435;-70
2021/04/07 03:04:18;;;;;;;16.50;8.30;;;76.90;2124.80;;;;;;5078440;28;20054;-69
2021/04/07 03:06:44;;;;;;;12.40;8.03;;;76.80;2124.80;;;;;;5096283;28;20461;-70
2021/04/07 03:09:11;;;;;;;12.30;7.13;;;76.80;2124.80;;;;;;5096296;28;20484;-69
2021/04/07 03:11:37;;;;;;;12.97;7.70;;;76.80;2124.80;;;;;;5096388;28;20445;-69
2021/04/07 03:14:04;;;;;;;11.17;6.90;;;76.80;2124.80;;;;;;5096075;28;20364;-69
2021/04/07 03:16:30;;;;;;;14.90;6.93;;;76.90;2124.80;;;;;;5096347;28;20562;-69
2021/04/07 03:18:56;;;;;;;12.97;7.07;;;76.90;2099.20;;;;;;5096478;28;20498;-66
2021/04/07 03:21:22;;;;;;;13.13;7.50;;;76.80;2099.20;;;;;;5096214;28;20460;-67
2021/04/07 03:23:48;;;;;;;9.97;6.30;;;76.80;2099.20;;;;;;5096202;28;20464;-70
2021/04/07 03:26:14;;;;;;;11.60;7.07;;;76.80;2099.20;;;;;;5095772;28;20075;-69
2021/04/07 03:28:40;;;;;;;10.53;6.60;;;52.10;2124.80;;;;;;5095748;28;20365;-69
2021/04/07 03:31:06;;;;;;;12.50;6.63;;;52.10;2124.80;;;;;;5095741;28;20028;-69
2021/04/07 03:33:35;;;;;;;10.83;7.17;;;52.00;2124.80;;;;;;5095692;28;20465;-68
2021/04/07 03:36:03;;;;;;;18.23;7.37;;;52.00;2124.80;;;;;;5095579;28;20547;-69
2021/04/07 03:38:29;;;;;;;12.50;7.03;;;52.10;2124.80;;;;;;5095360;28;20545;-69
2021/04/07 03:40:56;;;;;;;14.07;7.70;;;52.10;2124.80;;;;;;5095653;28;20342;-69
2021/04/07 03:43:24;;;;;;;13.37;8.30;;;52.10;2099.20;;;;;;5095440;28;20530;-68
2021/04/07 03:45:55;;;;;;;14.47;8.10;;;52.00;2124.80;;;;;;5095937;28;20441;-69
2021/04/07 03:48:23;;;;;;;13.93;8.40;;;52.00;2124.80;;;;;;5095390;28;20364;-69
2021/04/07 03:50:51;;;;;;;13.37;8.80;;;52.00;2124.80;;;;;;5095398;28;20364;-68
2021/04/07 03:53:18;;;;;;;14.23;8.23;;;52.00;2099.20;;;;;;5095629;28;20407;-68
2021/04/07 03:55:49;;;;;;;14.17;8.07;;;52.00;2124.80;;;;;;5095204;28;20478;-69
2021/04/07 03:58:17;;;;;;;14.30;8.10;;;52.00;2124.80;;;;;;5077598;28;20465;-69
2021/04/07 04:00:43;;;;;;;12.70;7.50;;;51.90;2124.80;;;;;;5095209;28;20342;-69
2021/04/07 04:03:09;;;;;;;10.73;7.17;;;51.90;2124.80;;;;;;5095438;28;20360;-69
2021/04/07 04:05:36;;;;;;;11.17;7.20;;;51.90;2124.80;;;;;;5094980;28;20547;-68
2021/04/07 04:08:03;;;;;;;12.97;7.30;;;51.90;2124.80;;;;;;5095034;28;20372;-67
2021/04/07 04:10:30;;;;;;;13.77;8.20;;;51.80;2124.80;;;;;;5094986;28;20395;-69
2021/04/07 04:12:56;;;;;;;13.03;7.07;;;51.80;2124.80;;;;;;5095024;28;20027;-70
2021/04/07 04:15:22;;;;;;;18.03;8.37;;;51.80;2124.80;;;;;;5094833;28;20052;-69
2021/04/07 04:17:48;;;;;;;16.27;8.10;;;51.80;2124.80;;;;;;5094794;28;20464;-70
2021/04/07 04:20:16;;;;;;;15.27;7.67;;;51.80;2124.80;;;;;;5095402;28;20578;-69
2021/04/07 04:22:43;;;;;;;15.93;8.07;;;51.70;2124.80;;;;;;5094740;28;20360;-70
2021/04/07 04:25:12;;;;;;;16.57;8.20;;;51.70;2124.80;;;;;;5094669;28;20456;-68
2021/04/07 04:27:39;;;;;;;16.63;8.17;;;51.70;2124.80;;;;;;5094565;28;20512;-69
2021/04/07 04:30:14;;;;;;;14.93;7.40;;;51.70;2124.80;;;;;;5094593;28;20356;-69
2021/04/07 04:32:40;;;;;;;12.43;8.07;;;51.70;2150.40;;;;;;5095082;28;20376;-69
2021/04/07 04:35:09;;;;;;;14.17;8.60;;;51.70;2124.80;;;;;;5094768;28;20360;-68
2021/04/07 04:37:35;;;;;;;16.47;8.33;;;51.70;2124.80;;;;;;5094596;28;20476;-69
2021/04/07 04:40:02;;;;;;;11.00;8.07;;;51.60;2150.40;;;;;;5094385;28;20499;-68
2021/04/07 04:42:28;;;;;;;20.67;12.37;;;51.70;2124.80;;;;;;5094391;28;20346;-69
2021/04/07 04:44:54;;;;;;;18.00;10.37;;;51.60;2124.80;;;;;;5094335;28;20098;-69
2021/04/07 04:47:20;;;;;;;14.07;7.60;;;51.60;2150.40;;;;;;5094255;28;20464;-67
2021/04/07 04:49:46;;;;;;;13.37;7.20;;;51.60;2150.40;;;;;;5094234;28;20464;-70
2021/04/07 04:52:12;;;;;;;19.07;8.77;;;51.60;2150.40;;;;;;5094217;28;20435;-69
2021/04/07 04:54:38;;;;;;;21.83;9.27;;;51.70;2124.80;;;;;;5094447;28;20059;-69
2021/04/07 04:57:04;;;;;;;20.53;10.47;;;51.70;2124.80;;;;;;5094193;28;20012;-69
2021/04/07 04:59:30;;;;;;;17.43;11.00;;;51.70;2150.40;;;;;;5094057;28;20363;-68
2021/04/07 05:01:57;;;;;;;18.67;11.10;;;51.70;2124.80;;;;;;5094345;28;20397;-69
2021/04/07 05:04:23;;;;;;;39.13;20.13;;;51.70;2150.40;;;;;;5094242;28;20084;-69
2021/04/07 05:06:49;;;;;;;31.10;19.13;;;51.80;2124.80;;;;;;5093268;28;20414;-69
2021/04/07 05:09:15;;;;;;;25.47;14.80;;;51.80;2124.80;;;;;;5093999;28;20423;-69
2021/04/07 05:11:41;;;;;;;23.63;14.73;;;76.80;2150.40;;;;;;5093886;28;20341;-69
2021/04/07 05:14:07;;;;;;;25.70;13.03;;;51.80;2150.40;;;;;;5094218;28;20031;-69
2021/04/07 05:16:33;;;;;;;33.20;14.97;;;51.70;2150.40;;;;;;5093775;28;20529;-69
2021/04/07 05:19:00;;;;;;;76.37;43.10;;;51.70;2150.40;;;;;;5093748;28;20480;-69
2021/04/07 05:21:26;;;;;;;38.73;19.70;;;51.80;2150.40;;;;;;5094127;28;20470;-69
2021/04/07 05:23:53;;;;;;;50.47;18.93;;;51.80;2176.00;;;;;;5093795;28;20476;-69
2021/04/07 05:26:19;;;;;;;34.23;15.83;;;51.80;2176.00;;;;;;5093977;28;20472;-68
2021/04/07 05:28:46;;;;;;;19.07;10.53;;;51.90;2150.40;;;;;;5093796;28;20372;-70
2021/04/07 05:31:13;;;;;;;20.93;11.83;;;51.80;2150.40;;;;;;5093742;28;20546;-69
2021/04/07 05:33:41;;;;;;;16.03;9.30;;;51.90;2150.40;;;;;;5093708;28;20364;-67
2021/04/07 05:36:09;;;;;;;16.90;10.57;;;51.90;2150.40;;;;;;5093731;28;20469;-69
2021/04/07 05:38:35;;;;;;;21.03;12.10;;;51.90;2150.40;;;;;;5093482;28;20484;-68
2021/04/07 05:41:02;;;;;;;21.00;12.20;;;52.00;2150.40;;;;;;5094191;28;20440;-67
2021/04/07 05:43:29;;;;;;;14.23;9.13;;;52.00;2150.40;;;;;;5093958;28;20444;-69
2021/04/07 05:45:56;;;;;;;22.80;11.67;;;52.10;2150.40;;;;;;5093604;28;20410;-70
2021/04/07 05:48:22;;;;;;;20.10;12.23;;;76.80;2124.80;;;;;;5093547;28;20540;-69
2021/04/07 05:50:51;;;;;;;28.03;16.07;;;76.90;2124.80;;;;;;5093559;28;20514;-70
2021/04/07 05:53:19;;;;;;;27.00;15.63;;;77.00;2099.20;;;;;;5093506;28;20460;-69
2021/04/07 05:55:47;;;;;;;22.10;13.03;;;77.10;2099.20;;;;;;5093500;28;20019;-70
2021/04/07 05:58:14;;;;;;;27.03;13.50;;;77.10;2099.20;;;;;;5093569;28;20372;-68
2021/04/07 06:00:41;;;;;;;35.53;17.43;;;77.10;2099.20;;;;;;5094074;28;20444;-69
2021/04/07 06:03:08;;;;;;;26.43;14.83;;;77.20;2073.60;;;;;;5093440;28;20410;-69
2021/04/07 06:05:35;;;;;;;20.77;12.07;;;77.40;2073.60;;;;;;5093287;28;20360;-69
2021/04/07 06:08:02;;;;;;;22.93;12.20;;;77.40;2048.00;;;;;;5093384;28;20409;-70
2021/04/07 06:13:51;;;;;;;14.43;8.77;;;77.60;2022.40;;;;;;5093414;28;20480;-69
2021/04/07 06:16:17;;;;;;;11.23;7.87;;;77.70;2022.40;;;;;;5093896;28;20433;-68
2021/04/07 06:18:43;;;;;;;15.10;9.90;;;102.40;1996.80;;;;;;5095005;28;20453;-69
2021/04/07 06:21:11;;;;;;;15.73;9.07;;;102.50;1996.80;;;;;;5097582;28;20440;-69
2021/04/07 06:23:37;;;;;;;14.97;8.57;;;102.60;1971.20;;;;;;5097228;28;20448;-70
2021/04/07 06:26:03;;;;;;;17.03;9.47;;;102.70;1945.60;;;;;;5097188;28;20471;-69
2021/04/07 06:28:29;;;;;;;16.20;10.10;;;102.90;1945.60;;;;;;5097231;28;20387;-69
2021/04/07 06:30:55;;;;;;;15.17;9.53;;;103.00;1920.00;;;;;;5097241;28;20528;-66
2021/04/07 06:33:22;;;;;;;11.30;8.50;;;153.90;1817.60;;;;;;5097212;28;20103;-69
2021/04/07 06:35:51;;;;;;;17.45;10.27;;;307.20;1331.20;;;;;;5096907;28;20372;-70
2021/04/07 06:38:19;;;;;;;22.33;13.50;;;384.80;972.80;;;;;;5096890;28;20388;-68
2021/04/07 06:40:47;;;;;;;13.05;8.45;;;461.50;819.20;;;;;;5096860;28;20387;-69
2021/04/07 06:43:15;;;;;;;24.27;17.55;;;512.70;665.60;;;;;;5096625;28;20373;-68
2021/04/07 06:45:42;;;;;;;14.30;10.27;;;563.50;691.20;;;;;;5096896;28;20359;-69
2021/04/07 06:48:09;;;;;;;14.23;11.43;;;614.40;588.80;;;;;;5096807;28;20380;-70
2021/04/07 06:50:37;;;;;;;13.48;8.80;;;640.10;563.20;;;;;;5096702;28;20471;-72
2021/04/07 06:53:05;;;;;;;14.48;8.70;;;665.70;512.00;;;;;;5096658;28;20407;-70
2021/04/07 06:55:32;;;;;;;9.38;7.35;;;691.20;486.40;;;;;;5096538;28;20368;-70
2021/04/07 06:58:01;;;;;;;11.88;7.85;;;691.80;435.20;;;;;;5096554;28;20532;-70
2021/04/07 07:00:27;;;;;;;11.77;7.68;;;666.10;460.80;;;;;;5096548;28;20410;-69
2021/04/07 07:03:14;;;;;;;9.30;6.63;;;614.40;537.60;;;;;;5096467;28;20529;-70
2021/04/07 07:05:43;;;;;;;12.43;7.38;;;512.10;640.00;;;;;;5096443;28;20028;-69
2021/04/07 07:08:11;;;;;;;15.13;9.07;;;461.00;742.40;;;;;;5096312;28;20482;-70
2021/04/07 07:10:51;;;;;;;12.82;8.55;;;410.10;819.20;;;;;;5096635;28;20455;-70
2021/04/07 07:13:23;;;;;;;33.83;20.33;;;384.20;870.40;;;;;;5096346;28;20364;-69
2021/04/07 07:15:51;;;;;;;29.45;15.43;;;358.90;921.60;;;;;;5096629;28;20461;-68
2021/04/07 07:18:21;;;;;;;10.80;7.65;;;358.40;972.80;;;;;;5096544;28;20388;-70
2021/04/07 07:20:48;;;;;;;24.02;16.90;;;333.30;998.40;;;;;;5096094;28;20023;-70
2021/04/07 07:23:32;;;;;;;15.35;10.93;;;333.00;1049.60;;;;;;5095951;28;20464;-69
2021/04/07 07:26:06;;;;;;;14.35;10.65;;;308.10;1049.60;;;;;;5095882;28;20338;-68
2021/04/07 07:28:44;;;;;;;10.82;6.38;;;307.70;1100.80;;;;;;5096294;28;20406;-68
2021/04/07 07:31:24;;;;;;;12.05;5.85;;;307.50;1075.20;;;;;;5095016;28;20483;-70
2021/04/07 07:33:55;;;;;;;7.47;5.10;;;307.30;1075.20;;;;;;5095789;28;20372;-69
2021/04/07 07:36:21;;;;;;;19.50;12.02;;;307.20;1100.80;;;;;;5096036;28;20345;-70
2021/04/07 07:38:53;;;;;;;9.00;6.00;;;282.40;1126.40;;;;;;5095442;28;20597;-70
2021/04/07 07:41:22;;;;;;;12.65;7.35;;;282.20;1126.40;;;;;;5095608;28;20512;-69
2021/04/07 07:43:49;;;;;;;8.55;6.00;;;282.10;1126.40;;;;;;5095564;28;20365;-69
2021/04/07 07:46:19;;;;;;;8.25;4.78;;;282.10;1126.40;;;;;;5095241;28;20540;-69
2021/04/07 07:48:48;;;;;;;9.20;5.50;;;282.10;1126.40;;;;;;5095451;28;20533;-69
2021/04/07 07:51:20;;;;;;;7.32;4.70;;;282.00;1152.00;;;;;;5095329;28;20407;-69
2021/04/07 07:53:48;;;;;;;10.13;6.10;;;282.00;1100.80;;;;;;5095321;28;20016;-71
2021/04/07 07:56:17;;;;;;;8.55;6.45;;;281.90;1126.40;;;;;;5095176;28;20373;-70
2021/04/07 07:58:46;;;;;;;14.93;9.40;;;282.00;1126.40;;;;;;5095240;28;20388;-71
2021/04/07 08:01:15;;;;;;;5.22;4.47;;;281.80;1100.80;;;;;;5095500;28;20533;-72
2021/04/07 08:03:50;;;;;;;8.82;5.40;;;281.80;1100.80;;;;;;5095063;28;20024;-71
2021/04/07 08:06:17;;;;;;;8.98;6.38;;;281.90;1100.80;;;;;;5095105;28;20431;-69
2021/04/07 08:08:47;;;;;;;8.85;4.95;;;281.90;1100.80;;;;;;5095038;28;20338;-70
2021/04/07 08:11:14;;;;;;;14.32;9.93;;;281.80;1075.20;;;;;;5077512;28;20408;-70
2021/04/07 08:13:46;;;;;;;21.20;16.88;;;281.80;1100.80;;;;;;5095234;28;20412;-74
2021/04/07 08:16:17;;;;;;;17.70;11.70;;;281.80;1126.40;;;;;;5077269;28;20390;-71
2021/04/07 08:18:48;;;;;;;16.15;7.50;;;281.90;1075.20;;;;;;5095005;28;20368;-74
2021/04/07 08:21:18;;;;;;;13.98;6.88;;;282.10;1049.60;;;;;;5095265;28;20361;-71
2021/04/07 08:23:49;;;;;;;9.02;5.15;;;282.10;1075.20;;;;;;5094920;28;20406;-71
2021/04/07 08:26:16;;;;;;;11.65;6.85;;;282.10;1075.20;;;;;;5094839;28;20369;-72
2021/04/07 08:28:43;;;;;;;8.40;5.70;;;282.10;1049.60;;;;;;5095299;28;20360;-77
2021/04/07 08:31:17;;;;;;;8.52;4.50;;;282.20;1075.20;;;;;;5094798;28;20475;-73
2021/04/07 08:33:52;;;;;;;6.13;4.60;;;282.00;1049.60;;;;;;5094714;28;20364;-73
2021/04/07 08:36:27;;;;;;;7.18;4.45;;;281.90;1049.60;;;;;;5094585;28;20368;-68
2021/04/07 08:39:06;;;;;;;5.65;4.57;;;281.90;1049.60;;;;;;5094376;28;20491;-70
2021/04/07 08:41:33;;;;;;;10.57;5.38;;;281.80;1024.00;;;;;;5093790;28;20387;-72
2021/04/07 08:44:00;;;;;;;12.10;7.57;;;281.80;1049.60;;;;;;5094345;28;20380;-72
2021/04/07 08:46:28;;;;;;;8.00;4.28;;;281.70;1049.60;;;;;;5094509;28;20453;-73
2021/04/07 08:48:55;;;;;;;7.38;6.25;;;256.80;1024.00;;;;;;5076371;28;20449;-70
2021/04/07 08:51:24;;;;;;;10.98;5.50;;;281.60;1049.60;;;;;;5094245;28;20384;-70
2021/04/07 08:53:55;;;;;;;9.25;5.93;;;281.70;1049.60;;;;;;5094259;28;20404;-70
2021/04/07 08:56:29;;;;;;;12.48;8.82;;;281.70;1024.00;;;;;;5094275;28;20431;-72
2021/04/07 08:59:01;;;;;;;12.85;9.52;;;281.60;1024.00;;;;;;5094166;28;20402;-72
2021/04/07 09:01:35;;;;;;;12.35;8.10;;;281.60;1024.00;;;;;;5094136;28;20365;-69
2021/04/07 09:04:14;;;;;;;9.18;7.60;;;281.60;1024.00;;;;;;5094210;28;20461;-75
2021/04/07 09:07:02;;;;;;;19.92;11.88;;;281.60;998.40;;;;;;5094297;28;20458;-77
2021/04/07 09:09:35;;;;;;;23.30;16.60;;;281.70;998.40;;;;;;5093660;28;20431;-76
2021/04/07 09:12:03;;;;;;;7.53;4.38;;;281.80;998.40;;;;;;5075919;28;20368;-74
2021/04/07 09:14:29;;;;;;;27.30;11.98;;;281.80;1024.00;;;;;;5093824;28;20468;-73
2021/04/07 09:17:05;;;;;;;6.40;3.53;;;281.80;998.40;;;;;;5093905;28;20465;-76
2021/04/07 09:19:34;;;;;;;13.27;8.40;;;281.80;972.80;;;;;;5093776;28;20346;-74
2021/04/07 09:22:07;;;;;;;18.05;13.07;;;281.80;972.80;;;;;;5093688;28;20464;-69
2021/04/07 09:24:41;;;;;;;11.65;8.15;;;281.60;947.20;;;;;;5093728;28;20357;-73
2021/04/07 09:27:24;;;;;;;8.60;5.80;;;281.70;947.20;;;;;;5093778;28;20353;-67
2021/04/07 09:29:50;;;;;;;6.97;3.60;;;281.90;947.20;;;;;;5093742;28;20426;-77
2021/04/07 09:32:20;;;;;;;13.48;6.00;;;282.00;972.80;;;;;;5093527;28;20491;-73
2021/04/07 09:34:47;;;;;;;9.30;6.68;;;281.90;972.80;;;;;;5093494;28;20364;-72
2021/04/07 09:37:14;;;;;;;14.73;9.55;;;281.80;921.60;;;;;;5093592;28;20012;-72
2021/04/07 09:39:41;;;;;;;11.00;8.45;;;281.60;896.00;;;;;;5093493;28;20377;-74
2021/04/07 09:42:08;;;;;;;6.15;3.67;;;281.80;947.20;;;;;;5094070;28;20457;-71
2021/04/07 09:44:34;;;;;;;7.90;4.68;;;281.90;921.60;;;;;;5093982;28;20383;-68
2021/04/07 09:47:01;;;;;;;5.82;3.40;;;281.70;896.00;;;;;;5093513;28;20373;-73
2021/04/07 09:49:29;;;;;;;6.25;4.97;;;281.80;921.60;;;;;;5093368;28;20372;-67
2021/04/07 09:51:57;;;;;;;6.10;3.45;;;281.80;921.60;;;;;;5093458;28;20023;-68
2021/04/07 09:54:28;;;;;;;8.80;5.90;;;282.00;896.00;;;;;;5096980;28;20016;-75
2021/04/07 09:57:01;;;;;;;10.02;6.03;;;281.90;921.60;;;;;;5097677;28;20410;-71
2021/04/07 09:59:47;;;;;;;9.02;4.70;;;281.60;896.00;;;;;;5097597;28;20475;-71
2021/04/07 10:02:26;;;;;;;14.73;7.68;;;281.80;947.20;;;;;;5097476;28;20024;-71
2021/04/07 10:04:54;;;;;;;8.30;5.28;;;282.00;921.60;;;;;;5097519;28;20476;-71
2021/04/07 10:07:23;;;;;;;8.60;4.30;;;282.10;870.40;;;;;;5097312;28;20368;-68
2021/04/07 10:09:52;;;;;;;12.45;6.72;;;282.20;870.40;;;;;;5098511;28;20352;-70
2021/04/07 10:12:20;;;;;;;11.10;5.97;;;282.30;870.40;;;;;;5097468;28;20456;-69
2021/04/07 10:14:48;;;;;;;11.30;3.67;;;282.40;896.00;;;;;;5097506;28;20365;-70
2021/04/07 10:17:20;;;;;;;9.88;3.50;;;282.20;896.00;;;;;;5097210;28;20023;-68
2021/04/07 10:19:47;;;;;;;9.73;3.88;;;282.00;896.00;;;;;;5097479;28;20361;-67
2021/04/07 10:22:20;;;;;;;10.85;4.70;;;281.90;896.00;;;;;;5097049;28;20390;-67
2021/04/07 10:24:48;;;;;;;10.30;4.45;;;282.00;921.60;;;;;;5097177;28;20413;-70
2021/04/07 10:27:21;;;;;;;10.02;4.38;;;282.20;896.00;;;;;;5097447;28;20449;-71
2021/04/07 10:29:49;;;;;;;9.18;5.35;;;282.30;896.00;;;;;;5097146;28;20483;-71
2021/04/07 10:32:18;;;;;;;26.27;9.52;;;282.40;844.80;;;;;;5096886;28;20406;-71
2021/04/07 10:34:46;;;;;;;6.55;3.85;;;282.50;921.60;;;;;;5096896;28;20423;-71
2021/04/07 10:37:17;;;;;;;24.55;13.50;;;307.20;947.20;;;;;;5096867;28;20516;-71
2021/04/07 10:39:43;;;;;;;7.80;3.65;;;307.20;921.60;;;;;;5096730;28;20480;-70
2021/04/07 10:42:17;;;;;;;21.10;11.10;;;307.30;921.60;;;;;;5096726;28;20365;-69
2021/04/07 10:44:57;;;;;;;7.35;4.28;;;307.50;870.40;;;;;;5097061;28;20468;-70
2021/04/07 10:47:24;;;;;;;8.70;3.90;;;307.40;896.00;;;;;;5096590;28;20353;-72
2021/04/07 10:49:54;;;;;;;10.27;5.80;;;282.50;870.40;;;;;;5096716;28;20514;-70
2021/04/07 10:52:41;;;;;;;7.63;4.70;;;282.40;896.00;;;;;;5096410;28;20445;-67
2021/04/07 10:55:21;;;;;;;10.10;4.03;;;282.40;921.60;;;;;;5096824;28;20445;-68
2021/04/07 10:57:48;;;;;;;7.40;4.57;;;307.20;947.20;;;;;;5096475;28;20369;-69
2021/04/07 11:00:35;;;;;;;16.23;9.88;;;307.30;870.40;;;;;;5096189;28;20336;-69
2021/04/07 11:03:03;;;;;;;7.78;4.20;;;307.50;896.00;;;;;;5096696;28;20516;-69
2021/04/07 11:05:46;;;;;;;8.05;3.35;;;307.50;896.00;;;;;;5095349;28;20377;-68
2021/04/07 11:08:14;;;;;;;4.97;3.42;;;307.20;896.00;;;;;;5096203;28;20350;-70
2021/04/07 11:10:49;;;;;;;6.05;2.85;;;282.30;844.80;;;;;;5096147;28;20391;-68
2021/04/07 11:13:17;;;;;;;6.38;3.50;;;282.30;870.40;;;;;;5096335;28;20465;-68
2021/04/07 11:15:44;;;;;;;4.05;2.22;;;282.30;870.40;;;;;;5095939;28;20390;-69
2021/04/07 11:18:10;;;;;;;5.53;2.55;;;282.20;844.80;;;;;;5096016;28;20404;-68
2021/04/07 11:20:39;;;;;;;7.07;2.85;;;281.90;819.20;;;;;;5096047;28;20526;-67
2021/04/07 11:23:05;;;;;;;8.18;2.45;;;282.10;844.80;;;;;;5078120;28;20333;-69
2021/04/07 11:25:32;;;;;;;7.15;2.65;;;282.30;870.40;;;;;;5096223;28;20348;-68
2021/04/07 11:28:00;;;;;;;7.45;4.13;;;282.50;819.20;;;;;;5095926;28;20547;-68
2021/04/07 11:30:30;;;;;;;5.68;2.33;;;307.30;921.60;;;;;;5096030;28;20012;-68
2021/04/07 11:33:02;;;;;;;4.85;2.60;;;307.50;870.40;;;;;;5096064;28;20460;-70
2021/04/07 11:35:41;;;;;;;6.10;1.90;;;307.30;844.80;;;;;;5096253;28;20476;-70
2021/04/07 11:38:09;;;;;;;3.53;2.15;;;282.50;768.00;;;;;;5095968;28;20062;-70
2021/04/07 11:43:11;;;;;;;5.10;3.22;;;282.10;844.80;;;;;;5095853;28;20465;-70
2021/04/07 11:45:37;;;;;;;4.38;2.35;;;281.90;896.00;;;;;;5096047;28;20448;-68
2021/04/07 11:48:04;;;;;;;3.03;2.20;;;281.80;896.00;;;;;;5095507;28;20384;-69
2021/04/07 11:50:30;;;;;;;5.45;3.13;;;281.70;896.00;;;;;;5095549;28;20424;-69
2021/04/07 11:52:57;;;;;;;4.95;2.65;;;281.80;921.60;;;;;;5095788;28;20360;-69
2021/04/07 11:55:23;;;;;;;15.27;7.00;;;281.80;921.60;;;;;;5095418;28;20361;-69
2021/04/07 11:57:49;;;;;;;5.80;2.70;;;282.00;921.60;;;;;;5095389;28;20021;-67
2021/04/07 12:00:16;;;;;;;3.58;2.20;;;282.00;896.00;;;;;;5095333;28;20053;-69
2021/04/07 12:02:46;;;;;;;5.25;2.38;;;281.90;870.40;;;;;;5095347;28;20465;-69
2021/04/07 12:05:15;;;;;;;6.30;2.75;;;281.90;870.40;;;;;;5095969;28;20387;-68
2021/04/07 12:07:41;;;;;;;4.05;2.83;;;281.80;870.40;;;;;;5095035;28;20432;-69
2021/04/07 12:10:24;;;;;;;5.55;2.88;;;281.80;896.00;;;;;;5095201;28;20399;-69
2021/04/07 12:12:51;;;;;;;6.13;2.47;;;281.80;870.40;;;;;;5095066;28;20061;-69
2021/04/07 12:15:17;;;;;;;5.47;3.08;;;282.00;921.60;;;;;;5095015;28;20364;-69
2021/04/07 12:17:43;;;;;;;19.25;5.03;;;281.80;870.40;;;;;;5094757;28;20411;-68
2021/04/07 12:20:11;;;;;;;4.50;2.70;;;281.90;844.80;;;;;;5095043;28;20372;-67
2021/04/07 12:22:38;;;;;;;6.38;3.00;;;282.00;844.80;;;;;;5095036;28;20364;-69
2021/04/07 12:25:05;;;;;;;4.88;1.90;;;282.20;870.40;;;;;;5094887;28;20370;-68
2021/04/07 12:27:31;;;;;;;5.72;2.58;;;282.50;819.20;;;;;;5094837;28;20372;-67